Time,TemperatureF,DewpointF,PressureIn,WindDirection,WindDirectionDegrees,WindSpeedMPH,WindSpeedGustMPH,Humidity,HourlyPrecipIn,Conditions,Clouds,dailyrainin,SolarRadiationWatts/m^2,SoftwareType,DateUTC
2013-03-06 00:04:00,70.4,64.3,30.05,East,90,1.0,-999.0,81,0.00,,,0.00,0,Wunderground v.1.15,2013-03-05 13:04:00,
2013-03-06 00:09:00,70.4,64.3,30.05,East,90,1.0,-999.0,81,0.00,,,0.00,0,Wunderground v.1.15,2013-03-05 13:09:00,
2013-03-06 00:14:00,70.4,64.3,30.05,East,90,1.0,-999.0,81,0.00,,,0.00,0,Wunderground v.1.15,2013-03-05 13:14:00,
2013-03-06 00:19:00,70.4,64.3,30.05,East,90,1.0,-999.0,81,0.00,,,0.00,0,Wunderground v.1.15,2013-03-05 13:19:00,
2013-03-06 00:24:00,70.4,64.3,30.05,East,90,1.0,-999.0,81,0.00,,,0.00,0,Wunderground v.1.15,2013-03-05 13:24:00,
2013-03-06 00:29:00,70.4,64.3,30.05,East,90,1.0,-999.0,81,0.00,,,0.00,0,Wunderground v.1.15,2013-03-05 13:29:00,
2013-03-06 00:34:00,70.4,64.3,30.05,East,90,1.0,-999.0,81,0.00,,,0.00,0,Wunderground v.1.15,2013-03-05 13:34:00,
2013-03-06 00:39:00,70.4,64.3,30.05,East,90,1.0,-999.0,81,0.00,,,0.00,0,Wunderground v.1.15,2013-03-05 13:39:00,
2013-03-06 00:44:00,70.4,64.3,30.05,East,90,1.0,-999.0,81,0.00,,,0.00,0,Wunderground v.1.15,2013-03-05 13:44:00,
2013-03-06 00:49:00,70.1,64.7,30.04,NE,45,0.0,-999.0,83,0.00,,,0.00,0,Wunderground v.1.15,2013-03-05 13:49:00,
2013-03-06 00:54:00,70.1,64.7,30.04,NE,45,0.0,-999.0,83,0.00,,,0.00,0,Wunderground v.1.15,2013-03-05 13:54:00,
2013-03-06 00:59:00,70.1,64.7,30.04,NE,45,0.0,-999.0,83,0.00,,,0.00,0,Wunderground v.1.15,2013-03-05 13:59:00,
2013-03-06 01:04:00,70.1,64.7,30.04,NE,45,0.0,-999.0,83,0.00,,,0.00,0,Wunderground v.1.15,2013-03-05 14:04:00,
2013-03-06 01:09:00,70.1,64.7,30.04,NE,45,0.0,-999.0,83,0.00,,,0.00,0,Wunderground v.1.15,2013-03-05 14:09:00,
2013-03-06 01:14:00,70.1,64.7,30.04,NE,45,0.0,-999.0,83,0.00,,,0.00,0,Wunderground v.1.15,2013-03-05 14:14:00,
2013-03-06 01:19:00,69.9,64.5,30.04,ENE,68,0.0,-999.0,83,0.00,,,0.00,0,Wunderground v.1.15,2013-03-05 14:19:00,
2013-03-06 01:24:00,69.9,64.5,30.04,ENE,68,0.0,-999.0,83,0.00,,,0.00,0,Wunderground v.1.15,2013-03-05 14:24:00,
2013-03-06 01:29:00,69.9,64.5,30.04,ENE,68,0.0,-999.0,83,0.00,,,0.00,0,Wunderground v.1.15,2013-03-05 14:29:00,
2013-03-06 01:34:00,69.9,64.5,30.04,ENE,68,0.0,-999.0,83,0.00,,,0.00,0,Wunderground v.1.15,2013-03-05 14:34:00,
2013-03-06 01:39:00,69.9,64.5,30.04,ENE,68,0.0,-999.0,83,0.00,,,0.00,0,Wunderground v.1.15,2013-03-05 14:39:00,
2013-03-06 01:44:00,69.9,64.5,30.04,ENE,68,0.0,-999.0,83,0.00,,,0.00,0,Wunderground v.1.15,2013-03-05 14:44:00,
2013-03-06 01:49:00,70.3,64.2,30.03,NE,45,1.0,-999.0,81,0.00,,,0.00,0,Wunderground v.1.15,2013-03-05 14:49:00,
2013-03-06 01:54:00,70.3,64.2,30.03,NE,45,1.0,-999.0,81,0.00,,,0.00,0,Wunderground v.1.15,2013-03-05 14:54:00,
2013-03-06 01:59:00,70.3,64.2,30.03,NE,45,1.0,-999.0,81,0.00,,,0.00,0,Wunderground v.1.15,2013-03-05 14:59:00,
2013-03-06 02:04:00,70.3,64.2,30.03,NE,45,1.0,-999.0,81,0.00,,,0.00,0,Wunderground v.1.15,2013-03-05 15:04:00,
2013-03-06 02:09:00,70.3,64.2,30.03,NE,45,1.0,-999.0,81,0.00,,,0.00,0,Wunderground v.1.15,2013-03-05 15:09:00,
2013-03-06 02:14:00,70.3,64.2,30.03,NE,45,1.0,-999.0,81,0.00,,,0.00,0,Wunderground v.1.15,2013-03-05 15:14:00,
2013-03-06 02:19:00,70.9,64.8,30.02,ENE,68,1.0,-999.0,81,0.00,,,0.00,0,Wunderground v.1.15,2013-03-05 15:19:00,
2013-03-06 02:24:00,70.9,64.8,30.02,ENE,68,1.0,-999.0,81,0.00,,,0.00,0,Wunderground v.1.15,2013-03-05 15:24:00,
2013-03-06 02:29:00,70.9,64.8,30.02,ENE,68,1.0,-999.0,81,0.00,,,0.00,0,Wunderground v.1.15,2013-03-05 15:29:00,
2013-03-06 02:34:00,70.9,64.8,30.02,ENE,68,1.0,-999.0,81,0.00,,,0.00,0,Wunderground v.1.15,2013-03-05 15:34:00,
2013-03-06 02:39:00,70.9,64.8,30.02,ENE,68,1.0,-999.0,81,0.00,,,0.00,0,Wunderground v.1.15,2013-03-05 15:39:00,
2013-03-06 02:44:00,70.9,64.8,30.02,ENE,68,1.0,-999.0,81,0.00,,,0.00,0,Wunderground v.1.15,2013-03-05 15:44:00,
2013-03-06 02:49:00,71.2,65.4,30.02,ENE,68,2.0,-999.0,82,0.00,,,0.00,0,Wunderground v.1.15,2013-03-05 15:49:00,
2013-03-06 02:54:00,71.2,65.4,30.02,ENE,68,2.0,-999.0,82,0.00,,,0.00,0,Wunderground v.1.15,2013-03-05 15:54:00,
2013-03-06 02:59:00,71.2,65.4,30.02,ENE,68,2.0,-999.0,82,0.00,,,0.00,0,Wunderground v.1.15,2013-03-05 15:59:00,
2013-03-06 03:04:00,71.2,65.4,30.02,ENE,68,2.0,-999.0,82,0.00,,,0.00,0,Wunderground v.1.15,2013-03-05 16:04:00,
2013-03-06 03:09:00,71.2,65.4,30.02,ENE,68,2.0,-999.0,82,0.00,,,0.00,0,Wunderground v.1.15,2013-03-05 16:09:00,
2013-03-06 03:14:00,71.2,65.4,30.02,ENE,68,2.0,-999.0,82,0.00,,,0.00,0,Wunderground v.1.15,2013-03-05 16:14:00,
2013-03-06 03:19:00,71.2,65.8,30.01,ENE,68,2.0,-999.0,83,0.00,,,0.00,0,Wunderground v.1.15,2013-03-05 16:19:00,
2013-03-06 03:24:00,71.2,65.8,30.01,ENE,68,2.0,-999.0,83,0.00,,,0.00,0,Wunderground v.1.15,2013-03-05 16:24:00,
2013-03-06 03:29:00,71.2,65.8,30.01,ENE,68,2.0,-999.0,83,0.00,,,0.00,0,Wunderground v.1.15,2013-03-05 16:29:00,
2013-03-06 03:34:00,71.2,65.8,30.01,ENE,68,2.0,-999.0,83,0.00,,,0.00,0,Wunderground v.1.15,2013-03-05 16:34:00,
2013-03-06 03:39:00,71.2,65.8,30.01,ENE,68,2.0,-999.0,83,0.00,,,0.00,0,Wunderground v.1.15,2013-03-05 16:39:00,
2013-03-06 03:44:00,71.2,65.8,30.01,ENE,68,2.0,-999.0,83,0.00,,,0.00,0,Wunderground v.1.15,2013-03-05 16:44:00,
2013-03-06 03:49:00,70.7,65.6,30.01,NE,45,1.0,-999.0,84,0.00,,,0.00,0,Wunderground v.1.15,2013-03-05 16:49:00,
2013-03-06 03:54:00,70.7,65.6,30.01,NE,45,1.0,-999.0,84,0.00,,,0.00,0,Wunderground v.1.15,2013-03-05 16:54:00,
2013-03-06 03:59:00,70.7,65.6,30.01,NE,45,1.0,-999.0,84,0.00,,,0.00,0,Wunderground v.1.15,2013-03-05 16:59:00,
2013-03-06 04:04:00,70.7,65.6,30.01,NE,45,1.0,-999.0,84,0.00,,,0.00,0,Wunderground v.1.15,2013-03-05 17:04:00,
2013-03-06 04:09:00,70.7,65.6,30.01,NE,45,1.0,-999.0,84,0.00,,,0.00,0,Wunderground v.1.15,2013-03-05 17:09:00,
2013-03-06 04:14:00,70.7,65.6,30.01,NE,45,1.0,-999.0,84,0.00,,,0.00,0,Wunderground v.1.15,2013-03-05 17:14:00,
2013-03-06 04:19:00,70.0,64.6,30.01,NE,45,1.0,-999.0,83,0.00,,,0.00,0,Wunderground v.1.15,2013-03-05 17:19:00,
2013-03-06 04:24:00,70.0,64.6,30.01,NE,45,1.0,-999.0,83,0.00,,,0.00,0,Wunderground v.1.15,2013-03-05 17:24:00,
2013-03-06 04:29:00,70.0,64.6,30.01,NE,45,1.0,-999.0,83,0.00,,,0.00,0,Wunderground v.1.15,2013-03-05 17:29:00,
2013-03-06 04:34:00,70.0,64.6,30.01,NE,45,1.0,-999.0,83,0.00,,,0.00,0,Wunderground v.1.15,2013-03-05 17:34:00,
2013-03-06 04:39:00,70.0,64.6,30.01,NE,45,1.0,-999.0,83,0.00,,,0.00,0,Wunderground v.1.15,2013-03-05 17:39:00,
2013-03-06 04:44:00,70.0,64.6,30.01,NE,45,1.0,-999.0,83,0.00,,,0.00,0,Wunderground v.1.15,2013-03-05 17:44:00,
2013-03-06 04:49:00,69.7,64.0,30.01,NE,45,0.0,-999.0,82,0.00,,,0.00,0,Wunderground v.1.15,2013-03-05 17:49:00,
2013-03-06 04:54:00,69.7,64.0,30.01,NE,45,0.0,-999.0,82,0.00,,,0.00,0,Wunderground v.1.15,2013-03-05 17:54:00,
2013-03-06 04:59:00,69.7,64.0,30.01,NE,45,0.0,-999.0,82,0.00,,,0.00,0,Wunderground v.1.15,2013-03-05 17:59:00,
2013-03-06 05:04:00,69.7,64.0,30.01,NE,45,0.0,-999.0,82,0.00,,,0.00,0,Wunderground v.1.15,2013-03-05 18:04:00,
2013-03-06 05:09:00,69.7,64.0,30.01,NE,45,0.0,-999.0,82,0.00,,,0.00,0,Wunderground v.1.15,2013-03-05 18:09:00,
2013-03-06 05:14:00,69.7,64.0,30.01,NE,45,0.0,-999.0,82,0.00,,,0.00,0,Wunderground v.1.15,2013-03-05 18:14:00,
2013-03-06 05:19:00,68.8,64.1,30.02,NE,45,0.0,-999.0,85,0.00,,,0.00,0,Wunderground v.1.15,2013-03-05 18:19:00,
2013-03-06 05:24:00,68.8,64.1,30.02,NE,45,0.0,-999.0,85,0.00,,,0.00,0,Wunderground v.1.15,2013-03-05 18:24:00,
2013-03-06 05:29:00,68.8,64.1,30.02,NE,45,0.0,-999.0,85,0.00,,,0.00,0,Wunderground v.1.15,2013-03-05 18:29:00,
2013-03-06 05:34:00,68.8,64.1,30.02,NE,45,0.0,-999.0,85,0.00,,,0.00,0,Wunderground v.1.15,2013-03-05 18:34:00,
2013-03-06 05:39:00,68.8,64.1,30.02,NE,45,0.0,-999.0,85,0.00,,,0.00,0,Wunderground v.1.15,2013-03-05 18:39:00,
2013-03-06 05:44:00,68.8,64.1,30.02,NE,45,0.0,-999.0,85,0.00,,,0.00,0,Wunderground v.1.15,2013-03-05 18:44:00,
2013-03-06 05:49:00,68.4,63.7,30.02,NE,45,0.0,-999.0,85,0.00,,,0.00,0,Wunderground v.1.15,2013-03-05 18:49:00,
2013-03-06 05:54:00,68.4,63.7,30.02,NE,45,0.0,-999.0,85,0.00,,,0.00,0,Wunderground v.1.15,2013-03-05 18:54:00,
2013-03-06 05:59:00,68.4,63.7,30.02,NE,45,0.0,-999.0,85,0.00,,,0.00,0,Wunderground v.1.15,2013-03-05 18:59:00,
2013-03-06 06:04:00,68.4,63.7,30.02,NE,45,0.0,-999.0,85,0.00,,,0.00,0,Wunderground v.1.15,2013-03-05 19:04:00,
2013-03-06 06:09:00,68.4,63.7,30.02,NE,45,0.0,-999.0,85,0.00,,,0.00,0,Wunderground v.1.15,2013-03-05 19:09:00,
2013-03-06 06:14:00,68.4,63.7,30.02,NE,45,0.0,-999.0,85,0.00,,,0.00,0,Wunderground v.1.15,2013-03-05 19:14:00,
2013-03-06 06:19:00,68.6,64.9,30.03,NE,45,2.0,-999.0,88,0.00,,,0.00,0,Wunderground v.1.15,2013-03-05 19:19:00,
2013-03-06 06:24:00,68.6,64.9,30.03,NE,45,2.0,-999.0,88,0.00,,,0.00,0,Wunderground v.1.15,2013-03-05 19:24:00,
2013-03-06 06:29:00,68.6,64.9,30.03,NE,45,2.0,-999.0,88,0.00,,,0.00,0,Wunderground v.1.15,2013-03-05 19:29:00,
2013-03-06 06:34:00,68.6,64.9,30.03,NE,45,2.0,-999.0,88,0.00,,,0.00,0,Wunderground v.1.15,2013-03-05 19:34:00,
2013-03-06 06:39:00,68.6,64.9,30.03,NE,45,2.0,-999.0,88,0.00,,,0.00,0,Wunderground v.1.15,2013-03-05 19:39:00,
2013-03-06 06:44:00,68.6,64.9,30.03,NE,45,2.0,-999.0,88,0.00,,,0.00,0,Wunderground v.1.15,2013-03-05 19:44:00,
2013-03-06 06:49:00,68.1,64.4,30.03,North,0,1.0,-999.0,88,0.00,,,0.00,2,Wunderground v.1.15,2013-03-05 19:49:00,
2013-03-06 06:54:00,68.1,64.4,30.03,North,0,1.0,-999.0,88,0.00,,,0.00,2,Wunderground v.1.15,2013-03-05 19:54:00,
2013-03-06 06:59:00,68.1,64.4,30.03,North,0,1.0,-999.0,88,0.00,,,0.00,2,Wunderground v.1.15,2013-03-05 19:59:00,
2013-03-06 07:04:00,68.1,64.4,30.03,North,0,1.0,-999.0,88,0.00,,,0.00,2,Wunderground v.1.15,2013-03-05 20:04:00,
2013-03-06 07:09:00,68.1,64.4,30.03,North,0,1.0,-999.0,88,0.00,,,0.00,2,Wunderground v.1.15,2013-03-05 20:09:00,
2013-03-06 07:14:00,68.1,64.4,30.03,North,0,1.0,-999.0,88,0.00,,,0.00,2,Wunderground v.1.15,2013-03-05 20:14:00,
2013-03-06 07:19:00,67.9,64.2,30.04,North,0,0.0,-999.0,88,0.00,,,0.00,28,Wunderground v.1.15,2013-03-05 20:19:00,
2013-03-06 07:24:00,67.9,64.2,30.04,North,0,0.0,-999.0,88,0.00,,,0.00,28,Wunderground v.1.15,2013-03-05 20:24:00,
2013-03-06 07:29:00,67.9,64.2,30.04,North,0,0.0,-999.0,88,0.00,,,0.00,28,Wunderground v.1.15,2013-03-05 20:29:00,
2013-03-06 07:34:00,67.9,64.2,30.04,North,0,0.0,-999.0,88,0.00,,,0.00,28,Wunderground v.1.15,2013-03-05 20:34:00,
2013-03-06 07:39:00,67.9,64.2,30.04,North,0,0.0,-999.0,88,0.00,,,0.00,28,Wunderground v.1.15,2013-03-05 20:39:00,
2013-03-06 07:44:00,68.9,63.9,30.05,NNE,30,0.0,9.0,84,0.00,,,0.00,100,Wunderground v.1.15,2013-03-05 20:44:00,
2013-03-06 07:49:00,69.1,62.7,30.05,NNE,23,0.0,-999.0,80,0.00,,,0.00,83,Wunderground v.1.15,2013-03-05 20:49:00,
2013-03-06 07:54:00,69.9,63.4,30.05,East,80,1.0,1.0,80,0.00,,,0.00,83,Wunderground v.1.15,2013-03-05 20:54:00,
2013-03-06 07:59:00,70.4,63.9,30.05,East,80,0.0,1.0,80,0.00,,,0.00,49,Wunderground v.1.15,2013-03-05 20:59:00,
2013-03-06 08:04:00,69.1,62.7,30.05,NNE,23,0.0,-999.0,80,0.00,,,0.00,83,Wunderground v.1.15,2013-03-05 21:04:00,
2013-03-06 08:09:00,71.1,64.3,30.05,NE,46,1.0,1.0,79,0.00,,,0.00,221,Wunderground v.1.15,2013-03-05 21:09:00,
2013-03-06 08:14:00,71.5,64.3,30.05,ENE,59,0.0,1.0,78,0.00,,,0.00,169,Wunderground v.1.15,2013-03-05 21:14:00,
2013-03-06 08:19:00,71.9,64.3,30.05,ENE,73,0.0,1.0,77,0.00,,,0.00,127,Wunderground v.1.15,2013-03-05 21:19:00,
2013-03-06 08:24:00,71.4,63.8,30.05,NE,45,1.0,-999.0,77,0.00,,,0.00,140,Wunderground v.1.15,2013-03-05 21:24:00,
2013-03-06 08:29:00,72.3,64.7,30.05,NE,38,1.0,2.0,77,0.00,,,0.00,58,Wunderground v.1.15,2013-03-05 21:29:00,
2013-03-06 08:34:00,72.5,64.5,30.05,ENE,59,1.0,2.0,76,0.00,,,0.00,107,Wunderground v.1.15,2013-03-05 21:34:00,
2013-03-06 08:39:00,72.8,64.8,30.05,NE,34,1.0,2.0,76,0.00,,,0.00,327,Wunderground v.1.15,2013-03-05 21:39:00,
2013-03-06 08:44:00,73.4,65.4,30.05,ENE,63,2.0,2.0,76,0.00,,,0.00,380,Wunderground v.1.15,2013-03-05 21:44:00,
2013-03-06 08:49:00,74.0,65.2,30.05,ENE,75,1.0,2.0,74,0.00,,,0.00,404,Wunderground v.1.15,2013-03-05 21:49:00,
2013-03-06 08:54:00,73.4,64.6,30.06,NE,45,1.0,-999.0,74,0.00,,,0.00,329,Wunderground v.1.15,2013-03-05 21:54:00,
2013-03-06 08:59:00,74.9,65.3,30.06,ENE,72,2.0,2.0,72,0.00,,,0.00,468,Wunderground v.1.15,2013-03-05 21:59:00,
2013-03-06 09:04:00,74.8,65.2,30.06,ENE,64,2.0,4.0,72,0.00,,,0.00,311,Wunderground v.1.15,2013-03-05 22:04:00,
2013-03-06 09:09:00,74.7,65.1,30.06,ENE,65,2.0,4.0,72,0.00,,,0.00,302,Wunderground v.1.15,2013-03-05 22:09:00,
2013-03-06 09:14:00,73.4,64.6,30.06,NE,45,1.0,-999.0,74,0.00,,,0.00,329,Wunderground v.1.15,2013-03-05 22:14:00,
2013-03-06 09:19:00,74.3,65.1,30.06,NNW,338,1.0,2.0,73,0.00,,,0.00,269,Wunderground v.1.15,2013-03-05 22:19:00,
2013-03-06 09:24:00,74.0,64.8,30.06,ENE,67,2.0,2.0,73,0.00,,,0.00,315,Wunderground v.1.15,2013-03-05 22:24:00,
2013-03-06 09:29:00,74.2,64.6,30.06,NE,38,2.0,3.0,72,0.00,,,0.00,313,Wunderground v.1.15,2013-03-05 22:29:00,
2013-03-06 09:34:00,74.5,64.9,30.06,NE,45,2.0,-999.0,72,0.00,,,0.00,293,Wunderground v.1.15,2013-03-05 22:34:00,
2013-03-06 09:39:00,75.3,65.6,30.06,NNE,22,1.0,2.0,72,0.00,,,0.00,341,Wunderground v.1.15,2013-03-05 22:39:00,
2013-03-06 09:44:00,74.5,64.9,30.06,NE,45,2.0,-999.0,72,0.00,,,0.00,293,Wunderground v.1.15,2013-03-05 22:44:00,
2013-03-06 09:49:00,75.6,64.7,30.06,NE,37,2.0,2.0,69,0.00,,,0.00,439,Wunderground v.1.15,2013-03-05 22:49:00,
2013-03-06 09:54:00,75.1,64.2,30.06,NNE,26,2.0,3.0,69,0.00,,,0.00,366,Wunderground v.1.15,2013-03-05 22:54:00,
2013-03-06 09:59:00,75.6,64.7,30.06,NE,40,2.0,3.0,69,0.00,,,0.00,415,Wunderground v.1.15,2013-03-05 22:59:00,
2013-03-06 10:04:00,75.1,64.2,30.06,NE,45,2.0,-999.0,69,0.00,,,0.00,352,Wunderground v.1.15,2013-03-05 23:04:00,
2013-03-06 10:09:00,75.8,64.1,30.06,ENE,58,2.0,2.0,67,0.00,,,0.00,434,Wunderground v.1.15,2013-03-05 23:09:00,
2013-03-06 10:14:00,76.0,63.8,30.06,NE,54,2.0,3.0,66,0.00,,,0.00,452,Wunderground v.1.15,2013-03-05 23:14:00,
2013-03-06 10:19:00,77.2,63.6,30.06,NE,55,2.0,3.0,63,0.00,,,0.00,664,Wunderground v.1.15,2013-03-05 23:19:00,
2013-03-06 10:24:00,76.7,62.2,30.06,NE,45,2.0,-999.0,61,0.00,,,0.00,508,Wunderground v.1.15,2013-03-05 23:24:00,
2013-03-06 10:29:00,79.1,64.5,30.06,ENE,59,1.0,2.0,61,0.00,,,0.00,826,Wunderground v.1.15,2013-03-05 23:29:00,
2013-03-06 10:34:00,79.8,64.2,30.06,NNW,344,2.0,4.0,59,0.00,,,0.00,675,Wunderground v.1.15,2013-03-05 23:34:00,
2013-03-06 10:39:00,76.7,62.2,30.06,NE,45,2.0,-999.0,61,0.00,,,0.00,508,Wunderground v.1.15,2013-03-05 23:39:00,
2013-03-06 10:44:00,79.4,62.8,30.05,NNE,29,3.0,3.0,57,0.00,,,0.00,780,Wunderground v.1.15,2013-03-05 23:44:00,
2013-03-06 10:49:00,79.7,63.6,30.05,NE,55,3.0,3.0,58,0.00,,,0.00,782,Wunderground v.1.15,2013-03-05 23:49:00,
2013-03-06 10:54:00,80.1,64.0,30.05,East,80,3.0,3.0,58,0.00,,,0.00,800,Wunderground v.1.15,2013-03-05 23:54:00,
2013-03-06 10:59:00,79.9,63.3,30.05,NE,45,3.0,-999.0,57,0.00,,,0.00,763,Wunderground v.1.15,2013-03-05 23:59:00,
2013-03-06 11:04:00,80.0,63.9,30.05,NE,51,3.0,6.0,58,0.00,,,0.00,838,Wunderground v.1.15,2013-03-06 00:04:00,
2013-03-06 11:09:00,80.2,64.1,30.05,NE,47,3.0,6.0,58,0.00,,,0.00,828,Wunderground v.1.15,2013-03-06 00:09:00,
2013-03-06 11:14:00,80.7,64.1,30.05,NNE,19,3.0,3.0,57,0.00,,,0.00,715,Wunderground v.1.15,2013-03-06 00:14:00,
2013-03-06 11:19:00,80.6,64.0,30.05,NNE,20,3.0,3.0,57,0.00,,,0.00,710,Wunderground v.1.15,2013-03-06 00:19:00,
2013-03-06 11:24:00,80.2,65.1,30.05,NE,45,2.0,-999.0,60,0.00,,,0.00,808,Wunderground v.1.15,2013-03-06 00:24:00,
2013-03-06 11:29:00,81.2,66.0,30.05,East,96,2.0,3.0,60,0.00,,,0.00,1025,Wunderground v.1.15,2013-03-06 00:29:00,
2013-03-06 11:34:00,80.2,65.1,30.05,NE,45,2.0,-999.0,60,0.00,,,0.00,808,Wunderground v.1.15,2013-03-06 00:34:00,
2013-03-06 11:39:00,80.3,66.6,30.05,NNE,30,2.0,3.0,63,0.00,,,0.00,288,Wunderground v.1.15,2013-03-06 00:39:00,
2013-03-06 11:44:00,77.9,65.2,30.05,ENE,63,3.0,3.0,65,0.00,,,0.00,1055,Wunderground v.1.15,2013-03-06 00:44:00,
2013-03-06 11:49:00,79.0,67.1,30.04,NE,46,3.0,3.0,67,0.00,,,0.00,930,Wunderground v.1.15,2013-03-06 00:49:00,
2013-03-06 11:54:00,79.6,67.2,30.04,NE,40,3.0,3.0,66,0.00,,,0.00,921,Wunderground v.1.15,2013-03-06 00:54:00,
2013-03-06 11:59:00,79.7,66.4,30.04,NE,45,3.0,-999.0,64,0.00,,,0.00,792,Wunderground v.1.15,2013-03-06 00:59:00,
2013-03-06 12:04:00,79.6,67.2,30.04,NE,38,3.0,3.0,66,0.00,,,0.00,916,Wunderground v.1.15,2013-03-06 01:04:00,
2013-03-06 12:09:00,80.2,67.4,30.04,West,263,3.0,3.0,65,0.00,,,0.00,925,Wunderground v.1.15,2013-03-06 01:09:00,
2013-03-06 12:14:00,80.9,66.7,30.04,NNE,27,2.0,4.0,62,0.00,,,0.00,933,Wunderground v.1.15,2013-03-06 01:14:00,
2013-03-06 12:19:00,80.8,65.6,30.03,NE,45,2.0,-999.0,60,0.00,,,0.00,941,Wunderground v.1.15,2013-03-06 01:19:00,
2013-03-06 12:24:00,81.5,65.3,30.03,SE,130,2.0,2.0,58,0.00,,,0.00,911,Wunderground v.1.15,2013-03-06 01:24:00,
2013-03-06 12:29:00,81.0,65.8,30.03,NNE,28,2.0,6.0,60,0.00,,,0.00,911,Wunderground v.1.15,2013-03-06 01:29:00,
2013-03-06 12:34:00,81.3,65.6,30.03,ESE,112,2.0,2.0,59,0.00,,,0.00,1020,Wunderground v.1.15,2013-03-06 01:34:00,
2013-03-06 12:39:00,82.3,66.5,30.03,ENE,59,2.0,5.0,59,0.00,,,0.00,1032,Wunderground v.1.15,2013-03-06 01:39:00,
2013-03-06 12:44:00,80.8,65.6,30.03,NE,45,2.0,-999.0,60,0.00,,,0.00,941,Wunderground v.1.15,2013-03-06 01:44:00,
2013-03-06 12:49:00,80.6,66.4,30.02,ENE,58,3.0,4.0,62,0.00,,,0.00,1048,Wunderground v.1.15,2013-03-06 01:49:00,
2013-03-06 12:54:00,81.1,65.4,30.03,SSE,159,3.0,8.0,59,0.00,,,0.00,494,Wunderground v.1.15,2013-03-06 01:54:00,
2013-03-06 12:59:00,79.8,66.5,30.02,ENE,76,2.0,8.0,64,0.00,,,0.00,830,Wunderground v.1.15,2013-03-06 01:59:00,
2013-03-06 13:04:00,81.0,67.7,30.02,NE,45,3.0,-999.0,64,0.00,,,0.00,1000,Wunderground v.1.15,2013-03-06 02:04:00,
2013-03-06 13:09:00,78.5,66.2,30.02,East,92,3.0,6.0,66,0.00,,,0.00,427,Wunderground v.1.15,2013-03-06 02:09:00,
2013-03-06 13:14:00,78.2,66.3,30.01,ENE,64,3.0,7.0,67,0.00,,,0.00,459,Wunderground v.1.15,2013-03-06 02:14:00,
2013-03-06 13:19:00,78.4,65.7,30.01,ENE,60,3.0,7.0,65,0.00,,,0.00,348,Wunderground v.1.15,2013-03-06 02:19:00,
2013-03-06 13:24:00,78.9,65.7,30.01,NE,45,3.0,-999.0,64,0.00,,,0.00,420,Wunderground v.1.15,2013-03-06 02:24:00,
2013-03-06 13:29:00,77.8,64.6,30.01,NE,44,4.0,4.0,64,0.00,,,0.00,169,Wunderground v.1.15,2013-03-06 02:29:00,
2013-03-06 13:34:00,78.9,65.7,30.01,NE,45,3.0,-999.0,64,0.00,,,0.00,420,Wunderground v.1.15,2013-03-06 02:34:00,
2013-03-06 13:39:00,80.5,66.3,30.01,NNE,24,4.0,5.0,62,0.00,,,0.00,947,Wunderground v.1.15,2013-03-06 02:39:00,
2013-03-06 13:44:00,81.0,66.3,30.00,SSW,201,3.0,6.0,61,0.00,,,0.00,919,Wunderground v.1.15,2013-03-06 02:44:00,
2013-03-06 13:49:00,80.9,65.2,30.00,ENE,77,4.0,6.0,59,0.00,,,0.00,919,Wunderground v.1.15,2013-03-06 02:49:00,
2013-03-06 13:54:00,80.2,63.6,30.00,ENE,68,4.0,-999.0,57,0.00,,,0.00,939,Wunderground v.1.15,2013-03-06 02:54:00,
2013-03-06 13:59:00,80.8,64.1,30.00,NNE,27,4.0,10.0,57,0.00,,,0.00,916,Wunderground v.1.15,2013-03-06 02:59:00,
2013-03-06 14:04:00,80.8,63.6,30.00,NE,38,4.0,5.0,56,0.00,,,0.00,914,Wunderground v.1.15,2013-03-06 03:04:00,
2013-03-06 14:09:00,81.3,63.1,30.00,NNE,24,4.0,6.0,54,0.00,,,0.00,963,Wunderground v.1.15,2013-03-06 03:09:00,
2013-03-06 14:14:00,80.2,63.6,30.00,ENE,68,4.0,-999.0,57,0.00,,,0.00,939,Wunderground v.1.15,2013-03-06 03:14:00,
2013-03-06 14:19:00,80.3,62.1,30.00,ENE,69,6.0,9.0,54,0.00,,,0.00,900,Wunderground v.1.15,2013-03-06 03:19:00,
2013-03-06 14:24:00,80.6,62.9,30.00,NNE,19,5.0,5.0,55,0.00,,,0.00,900,Wunderground v.1.15,2013-03-06 03:24:00,
2013-03-06 14:29:00,80.8,62.1,30.00,ESE,122,5.0,5.0,53,0.00,,,0.00,905,Wunderground v.1.15,2013-03-06 03:29:00,
2013-03-06 14:34:00,80.8,62.1,30.00,ENE,68,5.0,-999.0,53,0.00,,,0.00,918,Wunderground v.1.15,2013-03-06 03:34:00,
2013-03-06 14:39:00,81.1,62.3,29.99,ESE,111,4.0,7.0,53,0.00,,,0.00,974,Wunderground v.1.15,2013-03-06 03:39:00,
2013-03-06 14:44:00,80.8,62.1,30.00,ENE,68,5.0,-999.0,53,0.00,,,0.00,918,Wunderground v.1.15,2013-03-06 03:44:00,
2013-03-06 14:49:00,80.7,62.5,29.99,SSE,153,5.0,5.0,54,0.00,,,0.00,933,Wunderground v.1.15,2013-03-06 03:49:00,
2013-03-06 14:54:00,81.0,62.8,29.99,East,94,5.0,7.0,54,0.00,,,0.00,851,Wunderground v.1.15,2013-03-06 03:54:00,
2013-03-06 14:59:00,80.2,62.6,29.98,ESE,104,5.0,7.0,55,0.00,,,0.00,851,Wunderground v.1.15,2013-03-06 03:59:00,
2013-03-06 15:04:00,80.9,63.2,29.98,ENE,68,5.0,-999.0,55,0.00,,,0.00,914,Wunderground v.1.15,2013-03-06 04:04:00,
2013-03-06 15:09:00,80.3,62.7,29.98,North,11,4.0,5.0,55,0.00,,,0.00,345,Wunderground v.1.15,2013-03-06 04:09:00,
2013-03-06 15:14:00,78.8,62.3,29.98,East,98,5.0,5.0,57,0.00,,,0.00,330,Wunderground v.1.15,2013-03-06 04:14:00,
2013-03-06 15:19:00,78.6,62.1,29.98,East,80,5.0,6.0,57,0.00,,,0.00,297,Wunderground v.1.15,2013-03-06 04:19:00,
2013-03-06 15:24:00,78.3,61.8,29.98,ENE,74,6.0,8.0,57,0.00,,,0.00,332,Wunderground v.1.15,2013-03-06 04:24:00,
2013-03-06 15:29:00,79.3,63.7,29.98,ENE,68,5.0,-999.0,59,0.00,,,0.00,518,Wunderground v.1.15,2013-03-06 04:29:00,
2013-03-06 15:34:00,80.0,63.4,29.98,East,91,4.0,15.0,57,0.00,,,0.00,788,Wunderground v.1.15,2013-03-06 04:34:00,
2013-03-06 15:39:00,79.8,62.2,29.98,ENE,57,5.0,15.0,55,0.00,,,0.00,782,Wunderground v.1.15,2013-03-06 04:39:00,
2013-03-06 15:44:00,79.8,63.2,29.98,East,92,5.0,5.0,57,0.00,,,0.00,752,Wunderground v.1.15,2013-03-06 04:44:00,
2013-03-06 15:49:00,79.3,63.7,29.97,NNE,24,5.0,11.0,59,0.00,,,0.00,752,Wunderground v.1.15,2013-03-06 04:49:00,
2013-03-06 15:54:00,79.0,63.0,29.97,ESE,103,5.0,5.0,58,0.00,,,0.00,390,Wunderground v.1.15,2013-03-06 04:54:00,
2013-03-06 15:59:00,79.5,63.9,29.97,ENE,68,5.0,-999.0,59,0.00,,,0.00,733,Wunderground v.1.15,2013-03-06 04:59:00,
2013-03-06 16:04:00,79.4,64.3,29.97,ENE,74,5.0,5.0,60,0.00,,,0.00,664,Wunderground v.1.15,2013-03-06 05:04:00,
2013-03-06 16:09:00,78.9,64.8,29.97,SW,221,5.0,5.0,62,0.00,,,0.00,621,Wunderground v.1.15,2013-03-06 05:09:00,
2013-03-06 16:14:00,79.1,65.0,29.97,NE,56,5.0,5.0,62,0.00,,,0.00,613,Wunderground v.1.15,2013-03-06 05:14:00,
2013-03-06 16:19:00,79.4,64.3,29.97,SW,233,4.0,5.0,60,0.00,,,0.00,592,Wunderground v.1.15,2013-03-06 05:19:00,
2013-03-06 16:24:00,79.2,64.1,29.97,ENE,75,4.0,7.0,60,0.00,,,0.00,577,Wunderground v.1.15,2013-03-06 05:24:00,
2013-03-06 16:29:00,78.5,64.9,29.97,East,85,5.0,7.0,63,0.00,,,0.00,573,Wunderground v.1.15,2013-03-06 05:29:00,
2013-03-06 16:34:00,79.2,65.5,29.97,ENE,68,5.0,-999.0,63,0.00,,,0.00,611,Wunderground v.1.15,2013-03-06 05:34:00,
2013-03-06 16:39:00,77.8,66.0,29.97,East,84,6.0,7.0,67,0.00,,,0.00,536,Wunderground v.1.15,2013-03-06 05:39:00,
2013-03-06 16:44:00,78.1,66.7,29.97,NNE,24,6.0,7.0,68,0.00,,,0.00,517,Wunderground v.1.15,2013-03-06 05:44:00,
2013-03-06 16:49:00,78.2,66.3,29.97,NNE,30,5.0,7.0,67,0.00,,,0.00,501,Wunderground v.1.15,2013-03-06 05:49:00,
2013-03-06 16:54:00,77.9,66.5,29.97,ENE,68,5.0,-999.0,68,0.00,,,0.00,518,Wunderground v.1.15,2013-03-06 05:54:00,
2013-03-06 16:59:00,77.0,65.6,29.97,NE,50,5.0,7.0,68,0.00,,,0.00,471,Wunderground v.1.15,2013-03-06 05:59:00,
2013-03-06 17:04:00,77.4,66.0,29.97,SSW,192,5.0,5.0,68,0.00,,,0.00,452,Wunderground v.1.15,2013-03-06 06:04:00,
2013-03-06 17:09:00,77.3,66.7,29.97,East,92,5.0,5.0,70,0.00,,,0.00,432,Wunderground v.1.15,2013-03-06 06:09:00,
2013-03-06 17:14:00,77.9,66.5,29.97,ENE,68,5.0,-999.0,68,0.00,,,0.00,518,Wunderground v.1.15,2013-03-06 06:14:00,
2013-03-06 17:19:00,77.3,66.3,29.97,East,82,6.0,15.0,69,0.00,,,0.00,399,Wunderground v.1.15,2013-03-06 06:19:00,
2013-03-06 17:24:00,78.0,65.7,29.97,East,86,5.0,5.0,66,0.00,,,0.00,380,Wunderground v.1.15,2013-03-06 06:24:00,
2013-03-06 17:29:00,77.7,65.0,29.97,ENE,72,5.0,10.0,65,0.00,,,0.00,362,Wunderground v.1.15,2013-03-06 06:29:00,
2013-03-06 17:34:00,77.4,64.7,29.97,ENE,68,5.0,-999.0,65,0.00,,,0.00,416,Wunderground v.1.15,2013-03-06 06:34:00,
2013-03-06 17:39:00,77.0,63.9,29.98,NE,36,5.0,7.0,64,0.00,,,0.00,329,Wunderground v.1.15,2013-03-06 06:39:00,
2013-03-06 17:44:00,77.1,64.4,29.98,WSW,242,4.0,4.0,65,0.00,,,0.00,309,Wunderground v.1.15,2013-03-06 06:44:00,
2013-03-06 17:49:00,77.1,65.3,29.98,ENE,68,4.0,-999.0,67,0.00,,,0.00,310,Wunderground v.1.15,2013-03-06 06:49:00,
2013-03-06 17:54:00,76.6,64.4,29.98,North,355,4.0,4.0,66,0.00,,,0.00,274,Wunderground v.1.15,2013-03-06 06:54:00,
2013-03-06 17:59:00,76.5,64.7,29.98,NE,55,5.0,5.0,67,0.00,,,0.00,255,Wunderground v.1.15,2013-03-06 06:59:00,
2013-03-06 18:04:00,76.7,65.3,29.98,ENE,57,4.0,4.0,68,0.00,,,0.00,236,Wunderground v.1.15,2013-03-06 07:04:00,
2013-03-06 18:09:00,77.1,65.3,29.98,ENE,68,4.0,-999.0,67,0.00,,,0.00,310,Wunderground v.1.15,2013-03-06 07:09:00,
2013-03-06 18:14:00,76.1,64.8,29.98,ESE,121,3.0,3.0,68,0.00,,,0.00,158,Wunderground v.1.15,2013-03-06 07:14:00,
2013-03-06 18:19:00,75.6,64.3,29.98,East,92,4.0,4.0,68,0.00,,,0.00,181,Wunderground v.1.15,2013-03-06 07:19:00,
2013-03-06 18:24:00,75.5,63.3,29.98,ENE,76,5.0,5.0,66,0.00,,,0.00,137,Wunderground v.1.15,2013-03-06 07:24:00,
2013-03-06 18:29:00,75.7,63.5,29.98,SE,128,3.0,5.0,66,0.00,,,0.00,146,Wunderground v.1.15,2013-03-06 07:29:00,
2013-03-06 18:34:00,76.2,64.0,29.98,ENE,68,4.0,-999.0,66,0.00,,,0.00,193,Wunderground v.1.15,2013-03-06 07:34:00,
2013-03-06 18:39:00,75.6,63.0,29.98,East,80,2.0,2.0,65,0.00,,,0.00,104,Wunderground v.1.15,2013-03-06 07:39:00,
2013-03-06 18:44:00,76.2,64.0,29.98,ENE,68,4.0,-999.0,66,0.00,,,0.00,193,Wunderground v.1.15,2013-03-06 07:44:00,
2013-03-06 18:49:00,75.3,63.2,29.98,ENE,66,3.0,5.0,66,0.00,,,0.00,67,Wunderground v.1.15,2013-03-06 07:49:00,
2013-03-06 18:54:00,75.1,63.8,29.98,ENE,78,2.0,2.0,68,0.00,,,0.00,49,Wunderground v.1.15,2013-03-06 07:54:00,
2013-03-06 18:59:00,74.4,64.0,29.98,ENE,62,3.0,3.0,70,0.00,,,0.00,35,Wunderground v.1.15,2013-03-06 07:59:00,
2013-03-06 19:04:00,75.5,65.0,29.98,ENE,68,2.0,-999.0,70,0.00,,,0.00,85,Wunderground v.1.15,2013-03-06 08:04:00,
2013-03-06 19:09:00,73.7,63.3,29.98,WNW,302,3.0,3.0,70,0.00,,,0.00,16,Wunderground v.1.15,2013-03-06 08:09:00,
2013-03-06 19:14:00,73.5,63.5,29.98,ESE,109,3.0,3.0,71,0.00,,,0.00,11,Wunderground v.1.15,2013-03-06 08:14:00,
2013-03-06 19:19:00,73.3,63.7,29.99,East,94,2.0,3.0,72,0.00,,,0.00,7,Wunderground v.1.15,2013-03-06 08:19:00,
2013-03-06 19:24:00,73.0,63.4,29.99,NNE,33,3.0,5.0,72,0.00,,,0.00,5,Wunderground v.1.15,2013-03-06 08:24:00,
2013-03-06 19:29:00,73.5,64.3,29.99,ENE,68,3.0,-999.0,73,0.00,,,0.00,13,Wunderground v.1.15,2013-03-06 08:29:00,
2013-03-06 19:34:00,72.6,63.8,29.99,South,171,3.0,3.0,74,0.00,,,0.00,0,Wunderground v.1.15,2013-03-06 08:34:00,
2013-03-06 19:39:00,72.5,64.1,30.00,East,90,2.0,3.0,75,0.00,,,0.00,0,Wunderground v.1.15,2013-03-06 08:39:00,
2013-03-06 19:44:00,72.3,63.9,30.00,East,82,3.0,3.0,75,0.00,,,0.00,0,Wunderground v.1.15,2013-03-06 08:44:00,
2013-03-06 19:49:00,72.2,63.8,29.99,NNE,31,4.0,4.0,75,0.00,,,0.00,0,Wunderground v.1.15,2013-03-06 08:49:00,
2013-03-06 19:54:00,72.2,64.2,30.00,ENE,73,4.0,4.0,76,0.00,,,0.00,0,Wunderground v.1.15,2013-03-06 08:54:00,
2013-03-06 19:59:00,72.2,64.2,30.00,ENE,67,3.0,5.0,76,0.00,,,0.00,0,Wunderground v.1.15,2013-03-06 08:59:00,
2013-03-06 20:04:00,72.4,64.4,30.00,ENE,68,3.0,-999.0,76,0.00,,,0.00,0,Wunderground v.1.15,2013-03-06 09:04:00,
2013-03-06 20:09:00,72.1,64.9,30.00,NE,39,3.0,3.0,78,0.00,,,0.00,0,Wunderground v.1.15,2013-03-06 09:09:00,
2013-03-06 20:14:00,71.9,65.0,30.00,NE,36,3.0,3.0,79,0.00,,,0.00,0,Wunderground v.1.15,2013-03-06 09:14:00,
2013-03-06 20:19:00,71.7,64.8,30.00,East,89,3.0,7.0,79,0.00,,,0.00,0,Wunderground v.1.15,2013-03-06 09:19:00,
2013-03-06 20:24:00,71.9,65.4,30.01,ENE,68,3.0,-999.0,80,0.00,,,0.00,0,Wunderground v.1.15,2013-03-06 09:24:00,
2013-03-06 20:29:00,71.6,65.1,30.01,ENE,76,4.0,4.0,80,0.00,,,0.00,0,Wunderground v.1.15,2013-03-06 09:29:00,
2013-03-06 20:34:00,71.9,65.4,30.01,ENE,68,3.0,-999.0,80,0.00,,,0.00,0,Wunderground v.1.15,2013-03-06 09:34:00,
2013-03-06 20:39:00,71.5,65.4,30.01,ENE,74,5.0,5.0,81,0.00,,,0.00,0,Wunderground v.1.15,2013-03-06 09:39:00,
2013-03-06 20:44:00,71.5,65.7,30.01,NE,53,4.0,8.0,82,0.00,,,0.00,0,Wunderground v.1.15,2013-03-06 09:44:00,
2013-03-06 20:49:00,71.4,65.6,30.02,NE,51,3.0,8.0,82,0.00,,,0.00,0,Wunderground v.1.15,2013-03-06 09:49:00,
2013-03-06 20:54:00,71.3,65.9,30.02,East,82,3.0,3.0,83,0.00,,,0.00,0,Wunderground v.1.15,2013-03-06 09:54:00,
2013-03-06 20:59:00,71.2,65.8,30.02,South,180,3.0,3.0,83,0.00,,,0.00,0,Wunderground v.1.15,2013-03-06 09:59:00,
2013-03-06 21:04:00,71.4,66.0,30.02,ENE,68,4.0,-999.0,83,0.00,,,0.00,0,Wunderground v.1.15,2013-03-06 10:04:00,
2013-03-06 21:09:00,71.0,65.6,30.02,ENE,67,3.0,5.0,83,0.00,,,0.00,0,Wunderground v.1.15,2013-03-06 10:09:00,
2013-03-06 21:14:00,71.0,65.6,30.02,East,82,3.0,3.0,83,0.00,,,0.00,0,Wunderground v.1.15,2013-03-06 10:14:00,
2013-03-06 21:19:00,70.9,65.8,30.02,NE,49,3.0,3.0,84,0.00,,,0.00,0,Wunderground v.1.15,2013-03-06 10:19:00,
2013-03-06 21:24:00,71.0,65.9,30.02,NE,45,3.0,-999.0,84,0.00,,,0.00,0,Wunderground v.1.15,2013-03-06 10:24:00,
2013-03-06 21:29:00,70.7,65.6,30.02,ENE,59,2.0,3.0,84,0.00,,,0.00,0,Wunderground v.1.15,2013-03-06 10:29:00,
2013-03-06 21:34:00,70.7,65.6,30.02,NE,54,2.0,3.0,84,0.00,,,0.00,0,Wunderground v.1.15,2013-03-06 10:34:00,
2013-03-06 21:39:00,70.6,65.5,30.02,NNE,31,2.0,3.0,84,0.00,,,0.00,0,Wunderground v.1.15,2013-03-06 10:39:00,
2013-03-06 21:44:00,70.6,65.2,30.02,East,80,3.0,3.0,83,0.00,,,0.00,0,Wunderground v.1.15,2013-03-06 10:44:00,
2013-03-06 21:49:00,70.6,65.2,30.02,East,91,3.0,3.0,83,0.00,,,0.00,0,Wunderground v.1.15,2013-03-06 10:49:00,
2013-03-06 21:54:00,70.6,65.2,30.02,NE,45,2.0,-999.0,83,0.00,,,0.00,0,Wunderground v.1.15,2013-03-06 10:54:00,
2013-03-06 21:59:00,70.5,65.1,30.03,NE,34,3.0,6.0,83,0.00,,,0.00,0,Wunderground v.1.15,2013-03-06 10:59:00,
2013-03-06 22:04:00,70.5,65.1,30.02,ESE,106,3.0,3.0,83,0.00,,,0.00,0,Wunderground v.1.15,2013-03-06 11:04:00,
2013-03-06 22:09:00,70.5,65.1,30.02,East,82,3.0,3.0,83,0.00,,,0.00,0,Wunderground v.1.15,2013-03-06 11:09:00,
2013-03-06 22:14:00,70.4,65.0,30.02,East,79,3.0,3.0,83,0.00,,,0.00,0,Wunderground v.1.15,2013-03-06 11:14:00,
2013-03-06 22:19:00,70.4,65.0,30.02,ENE,68,3.0,-999.0,83,0.00,,,0.00,0,Wunderground v.1.15,2013-03-06 11:19:00,
2013-03-06 22:24:00,70.3,64.9,30.02,ENE,66,3.0,4.0,83,0.00,,,0.00,0,Wunderground v.1.15,2013-03-06 11:24:00,
2013-03-06 22:29:00,70.3,64.9,30.02,ENE,68,4.0,7.0,83,0.00,,,0.00,0,Wunderground v.1.15,2013-03-06 11:29:00,
2013-03-06 22:34:00,70.4,65.0,30.02,ENE,68,3.0,-999.0,83,0.00,,,0.00,0,Wunderground v.1.15,2013-03-06 11:34:00,
2013-03-06 22:39:00,70.2,64.8,30.02,East,82,3.0,3.0,83,0.00,,,0.00,0,Wunderground v.1.15,2013-03-06 11:39:00,
2013-03-06 22:44:00,70.1,64.7,30.02,ENE,78,3.0,3.0,83,0.00,,,0.00,0,Wunderground v.1.15,2013-03-06 11:44:00,
2013-03-06 22:49:00,70.1,64.7,30.02,ENE,68,3.0,-999.0,83,0.00,,,0.00,0,Wunderground v.1.15,2013-03-06 11:49:00,
2013-03-06 22:54:00,70.1,64.7,30.02,ENE,68,3.0,-999.0,83,0.00,,,0.00,0,Wunderground v.1.15,2013-03-06 11:54:00,
2013-03-06 22:59:00,70.1,64.7,30.02,ENE,68,3.0,-999.0,83,0.00,,,0.00,0,Wunderground v.1.15,2013-03-06 11:59:00,
2013-03-06 23:04:00,70.1,64.7,30.02,ENE,68,3.0,-999.0,83,0.00,,,0.00,0,Wunderground v.1.15,2013-03-06 12:04:00,
2013-03-06 23:09:00,70.1,64.7,30.02,ENE,68,3.0,-999.0,83,0.00,,,0.00,0,Wunderground v.1.15,2013-03-06 12:09:00,
2013-03-06 23:14:00,70.1,64.7,30.02,ENE,68,3.0,-999.0,83,0.00,,,0.00,0,Wunderground v.1.15,2013-03-06 12:14:00,
2013-03-06 23:19:00,69.7,64.6,30.02,NE,45,2.0,-999.0,84,0.00,,,0.00,0,Wunderground v.1.15,2013-03-06 12:19:00,
2013-03-06 23:24:00,69.7,64.6,30.02,NE,45,2.0,-999.0,84,0.00,,,0.00,0,Wunderground v.1.15,2013-03-06 12:24:00,
2013-03-06 23:29:00,69.7,64.6,30.02,NE,45,2.0,-999.0,84,0.00,,,0.00,0,Wunderground v.1.15,2013-03-06 12:29:00,
2013-03-06 23:34:00,69.7,64.6,30.02,NE,45,2.0,-999.0,84,0.00,,,0.00,0,Wunderground v.1.15,2013-03-06 12:34:00,
2013-03-06 23:39:00,69.7,64.6,30.02,NE,45,2.0,-999.0,84,0.00,,,0.00,0,Wunderground v.1.15,2013-03-06 12:39:00,
2013-03-06 23:44:00,69.7,64.6,30.02,NE,45,2.0,-999.0,84,0.00,,,0.00,0,Wunderground v.1.15,2013-03-06 12:44:00,
2013-03-06 23:49:00,69.0,64.0,30.01,NNE,23,1.0,-999.0,84,0.00,,,0.00,0,Wunderground v.1.15,2013-03-06 12:49:00,
2013-03-06 23:54:00,69.0,64.0,30.01,NNE,23,1.0,-999.0,84,0.00,,,0.00,0,Wunderground v.1.15,2013-03-06 12:54:00,
2013-03-06 23:59:00,69.0,64.0,30.01,NNE,23,1.0,-999.0,84,0.00,,,0.00,0,Wunderground v.1.15,2013-03-06 12:59:00,